Time;durP1;ratioP1;P1;durP2;ratioP2;P2;SDS_P1;SDS_P2;PMS_P1;PMS_P2;Temp;Humidity;BMP_temperature;BMP_pressure;BME280_temperature;BME280_humidity;BME280_pressure;Samples;Min_cycle;Max_cycle;Signal;HPM_P1;HPM_P2
2023/10/31 00:25:13;;;;;;;2.00;1.00;;;11.60;99.90;;;;;;1114462;23;20324;-86
2023/10/31 00:27:39;;;;;;;2.10;0.70;;;;;;;;;;5040983;28;21452;-88
2023/10/31 00:30:06;;;;;;;2.08;1.00;;;11.50;99.90;;;;;;5053574;28;20028;-86
2023/10/31 00:32:35;;;;;;;1.05;0.80;;;11.60;99.90;;;;;;5038173;28;20029;-87
2023/10/31 00:35:01;;;;;;;2.22;1.00;;;;;;;;;;5029595;28;20064;-84
2023/10/31 00:37:27;;;;;;;2.35;0.80;;;;;;;;;;5042977;28;20029;-85
2023/10/31 00:39:53;;;;;;;1.23;0.80;;;;;;;;;;5025851;28;20049;-86
2023/10/31 00:42:19;;;;;;;2.30;0.95;;;;;;;;;;5044657;28;20045;-88
2023/10/31 00:44:45;;;;;;;3.60;0.90;;;;;;;;;;5044159;28;20026;-87
2023/10/31 00:47:11;;;;;;;1.10;0.80;;;11.60;99.90;;;;;;5027769;28;20041;-86
2023/10/31 00:49:37;;;;;;;1.80;0.73;;;;;;;;;;5043967;28;20022;-87
2023/10/31 00:52:03;;;;;;;2.60;0.80;;;;;;;;;;5045459;28;20018;-85
2023/10/31 00:54:29;;;;;;;1.70;0.80;;;;;;;;;;5029814;28;20014;-86
2023/10/31 00:56:54;;;;;;;4.00;1.10;;;11.60;99.90;;;;;;5044254;28;20117;-88
2023/10/31 00:59:20;;;;;;;2.20;1.10;;;12.00;99.90;;;;;;5043006;28;20029;-86
2023/10/31 01:01:46;;;;;;;3.25;1.65;;;;;;;;;;5031734;28;20033;-86
2023/10/31 01:04:12;;;;;;;4.72;1.15;;;;;;;;;;5038443;28;20037;-87
2023/10/31 01:06:42;;;;;;;3.20;0.98;;;11.60;99.90;;;;;;5048293;28;20017;-86
2023/10/31 01:09:08;;;;;;;8.63;0.95;;;11.90;99.90;;;;;;5048908;28;20052;-88
2023/10/31 01:11:34;;;;;;;2.25;0.90;;;;;;;;;;5032613;28;20021;-86
2023/10/31 01:13:59;;;;;;;1.58;0.85;;;11.70;99.90;;;;;;5035420;28;20010;-87
2023/10/31 01:16:25;;;;;;;1.30;0.85;;;11.70;99.90;;;;;;5035005;28;20045;-85
2023/10/31 01:18:51;;;;;;;1.55;0.80;;;11.70;99.90;;;;;;5053116;28;20056;-86
2023/10/31 01:21:16;;;;;;;2.83;0.82;;;11.70;99.90;;;;;;5051772;28;20020;-87
2023/10/31 01:23:42;;;;;;;1.25;0.60;;;11.60;99.90;;;;;;5053577;28;20037;-87
2023/10/31 01:26:08;;;;;;;3.90;0.80;;;11.60;99.90;;;;;;5031873;28;20028;-86
2023/10/31 01:28:34;;;;;;;2.00;0.70;;;9.00;99.90;;;;;;5032044;28;20088;-86
2023/10/31 01:31:00;;;;;;;1.13;0.68;;;11.50;99.90;;;;;;5033180;28;20006;-89
2023/10/31 01:33:25;;;;;;;1.20;0.80;;;11.60;99.90;;;;;;5030815;28;20100;-87
2023/10/31 01:35:51;;;;;;;3.28;0.90;;;11.60;99.90;;;;;;5031214;28;20085;-88
2023/10/31 01:38:17;;;;;;;3.50;0.85;;;;;;;;;;5033347;28;20037;-85
2023/10/31 01:40:43;;;;;;;0.60;0.60;;;11.50;99.90;;;;;;5032352;28;20041;-85
2023/10/31 01:43:09;;;;;;;1.33;0.80;;;;;;;;;;5047030;28;20044;-87
2023/10/31 01:45:34;;;;;;;2.22;0.90;;;11.60;99.90;;;;;;5027822;28;20014;-85
2023/10/31 01:48:00;;;;;;;2.20;1.00;;;11.50;99.90;;;;;;5044966;28;20037;-86
2023/10/31 01:50:28;;;;;;;4.45;1.10;;;;;;;;;;5024652;28;20040;-86
2023/10/31 01:52:54;;;;;;;2.42;0.80;;;;;;;;;;5026212;28;20029;-87
2023/10/31 01:55:21;;;;;;;1.92;0.90;;;11.50;99.90;;;;;;5029062;28;21379;-85
2023/10/31 01:57:48;;;;;;;3.08;0.82;;;11.50;99.90;;;;;;5041104;28;20016;-87
2023/10/31 02:00:15;;;;;;;3.45;1.15;;;11.50;99.90;;;;;;5024217;28;20022;-90
2023/10/31 02:02:42;;;;;;;3.00;1.45;;;11.40;99.90;;;;;;5022651;28;20029;-86
2023/10/31 02:05:09;;;;;;;2.67;0.90;;;11.40;99.90;;;;;;5039075;28;20036;-85
2023/10/31 02:07:35;;;;;;;2.22;0.90;;;;;;;;;;5023391;28;20268;-84
2023/10/31 02:10:00;;;;;;;1.63;0.77;;;11.40;99.90;;;;;;5037675;28;20031;-87
2023/10/31 02:12:37;;;;;;;2.28;0.85;;;11.40;99.90;;;;;;5039706;28;20042;-89
2023/10/31 02:15:03;;;;;;;1.80;0.93;;;11.40;99.90;;;;;;5024545;28;20033;-87
2023/10/31 02:17:29;;;;;;;2.92;0.90;;;11.40;99.90;;;;;;5020939;28;20080;-86
2023/10/31 02:19:55;;;;;;;0.70;0.70;;;13.00;99.90;;;;;;5021470;28;20029;-87
2023/10/31 02:22:22;;;;;;;1.30;0.70;;;11.40;99.90;;;;;;5021493;28;20088;-87
2023/10/31 02:24:48;;;;;;;2.22;1.00;;;11.50;99.90;;;;;;5023520;28;20037;-86
2023/10/31 02:27:14;;;;;;;1.23;0.82;;;;;;;;;;5033455;28;20073;-86
2023/10/31 02:29:40;;;;;;;2.60;0.90;;;11.50;99.90;;;;;;5033944;28;20018;-87
2023/10/31 02:32:06;;;;;;;2.05;0.93;;;;;;;;;;5030633;28;20044;-85
2023/10/31 02:34:32;;;;;;;2.83;0.80;;;11.40;99.90;;;;;;5021726;28;20022;-87
2023/10/31 02:36:58;;;;;;;2.03;0.82;;;;;;;;;;5020293;28;20061;-87
2023/10/31 02:39:24;;;;;;;1.50;0.80;;;;;;;;;;5032107;28;20026;-86
2023/10/31 02:41:49;;;;;;;1.65;0.82;;;11.40;99.90;;;;;;5025369;28;20081;-87
2023/10/31 02:44:16;;;;;;;1.95;0.95;;;;;;;;;;5039584;28;20041;-88
2023/10/31 02:46:41;;;;;;;1.90;0.85;;;11.30;99.90;;;;;;5022536;28;20238;-85
2023/10/31 02:49:09;;;;;;;1.73;0.88;;;11.20;99.90;;;;;;5029505;28;20014;-86
2023/10/31 02:51:35;;;;;;;2.85;1.00;;;11.20;99.90;;;;;;5024232;28;20029;-86
2023/10/31 02:54:01;;;;;;;2.50;0.80;;;11.30;99.90;;;;;;5040705;28;20036;-86
2023/10/31 02:56:26;;;;;;;2.17;0.88;;;11.30;99.90;;;;;;5027899;28;20009;-86
2023/10/31 02:58:52;;;;;;;1.75;0.77;;;;;;;;;;5014316;28;20579;-85
2023/10/31 03:01:19;;;;;;;2.33;0.95;;;11.20;99.90;;;;;;5022595;28;20845;-87
2023/10/31 03:03:46;;;;;;;3.83;0.90;;;;;;;;;;5035831;28;20041;-86
2023/10/31 03:06:12;;;;;;;6.05;0.88;;;;;;;;;;5025498;28;20022;-86
2023/10/31 03:08:37;;;;;;;3.83;0.90;;;11.20;99.90;;;;;;5038804;28;20026;-86
2023/10/31 03:11:03;;;;;;;1.42;0.70;;;11.30;99.90;;;;;;5027856;28;20021;-87
2023/10/31 03:13:29;;;;;;;2.92;0.80;;;11.30;99.90;;;;;;5043416;28;20141;-86
2023/10/31 03:15:54;;;;;;;1.00;0.75;;;13.40;99.90;;;;;;5038283;28;20021;-84
2023/10/31 03:18:20;;;;;;;2.92;0.77;;;11.20;99.90;;;;;;5025398;28;20040;-88
2023/10/31 03:20:46;;;;;;;4.32;1.27;;;11.20;99.90;;;;;;5039872;28;20017;-85
2023/10/31 03:23:12;;;;;;;3.25;0.90;;;;;;;;;;5005639;28;20045;-86
2023/10/31 03:25:38;;;;;;;2.80;0.90;;;11.20;99.90;;;;;;5029950;28;20025;-85
2023/10/31 03:28:04;;;;;;;1.00;0.70;;;11.10;99.90;;;;;;5029686;28;20085;-87
2023/10/31 03:30:29;;;;;;;1.92;0.65;;;11.20;99.90;;;;;;5030393;28;20045;-86
2023/10/31 03:32:55;;;;;;;1.35;0.82;;;;;;;;;;5034695;28;20742;-87
2023/10/31 03:35:21;;;;;;;2.10;0.55;;;11.20;99.90;;;;;;5035411;28;20025;-86
2023/10/31 03:37:46;;;;;;;3.33;0.88;;;12.00;99.90;;;;;;5036806;28;20025;-85
2023/10/31 03:40:12;;;;;;;2.65;0.95;;;11.90;99.90;;;;;;5035766;28;20021;-86
2023/10/31 03:42:38;;;;;;;2.13;0.80;;;;;;;;;;5027989;28;20045;-86
2023/10/31 03:45:05;;;;;;;3.90;0.80;;;11.10;99.90;;;;;;5047586;28;20069;-86
2023/10/31 03:47:30;;;;;;;2.55;1.20;;;11.20;99.90;;;;;;5012551;28;20024;-86
2023/10/31 03:49:56;;;;;;;1.50;0.80;;;12.80;99.90;;;;;;5055302;28;20010;-85
2023/10/31 03:52:22;;;;;;;1.73;0.90;;;11.10;99.90;;;;;;5038547;28;20028;-84
2023/10/31 03:54:48;;;;;;;2.85;0.90;;;;;;;;;;5050686;28;20034;-85
2023/10/31 03:57:14;;;;;;;2.08;0.73;;;11.10;99.90;;;;;;5036124;28;20094;-82
2023/10/31 03:59:40;;;;;;;2.13;0.88;;;12.10;99.90;;;;;;5029659;28;20041;-86
2023/10/31 04:02:05;;;;;;;6.32;1.00;;;12.60;99.90;;;;;;5033788;28;20029;-86
2023/10/31 04:04:31;;;;;;;6.20;1.52;;;11.10;99.90;;;;;;5045190;28;20037;-84
2023/10/31 04:06:57;;;;;;;2.58;0.95;;;11.10;99.90;;;;;;5034662;28;20017;-85
2023/10/31 04:09:22;;;;;;;1.60;1.02;;;11.10;99.90;;;;;;5046544;28;20061;-85
2023/10/31 04:11:48;;;;;;;1.70;0.90;;;12.20;99.90;;;;;;5046084;28;20045;-87
2023/10/31 04:14:14;;;;;;;2.25;0.85;;;;;;;;;;5043898;28;20020;-87
2023/10/31 04:16:45;;;;;;;3.92;1.17;;;;;;;;;;5026956;28;20037;-87
2023/10/31 04:19:13;;;;;;;2.80;0.98;;;11.10;99.90;;;;;;5030773;28;20053;-86
2023/10/31 04:21:39;;;;;;;4.43;1.15;;;11.10;99.90;;;;;;5027410;28;20044;-86
2023/10/31 04:24:05;;;;;;;3.28;1.20;;;11.30;99.90;;;;;;5043482;28;20026;-88
2023/10/31 04:26:31;;;;;;;1.50;0.90;;;11.00;99.90;;;;;;5028984;28;20034;-86
2023/10/31 04:28:57;;;;;;;4.03;1.00;;;12.80;99.90;;;;;;5048652;28;20044;-87
2023/10/31 04:31:22;;;;;;;4.00;1.30;;;11.30;99.90;;;;;;5037730;28;20033;-84
2023/10/31 04:33:48;;;;;;;4.18;0.88;;;11.50;99.90;;;;;;5035946;28;20029;-85
2023/10/31 04:36:14;;;;;;;4.10;1.10;;;;;;;;;;5030766;28;20022;-86
2023/10/31 04:38:39;;;;;;;2.55;1.00;;;11.10;99.90;;;;;;5035065;28;20042;-84
2023/10/31 04:41:05;;;;;;;4.20;1.00;;;11.10;99.90;;;;;;5032243;28;20036;-85
2023/10/31 04:43:31;;;;;;;4.10;1.20;;;;;;;;;;5046316;28;20041;-89
2023/10/31 04:45:57;;;;;;;5.15;1.27;;;11.10;99.90;;;;;;5047976;28;20013;-88
2023/10/31 04:48:22;;;;;;;2.85;1.15;;;12.50;99.90;;;;;;5032460;28;20483;-86
2023/10/31 04:50:48;;;;;;;2.20;1.13;;;12.10;99.90;;;;;;5030522;28;20072;-86
2023/10/31 04:53:14;;;;;;;5.18;1.10;;;11.00;99.90;;;;;;5033906;28;20010;-85
2023/10/31 04:55:40;;;;;;;3.10;1.00;;;11.60;99.90;;;;;;5028033;28;20101;-84
2023/10/31 04:58:05;;;;;;;1.58;0.90;;;11.00;99.90;;;;;;5023295;28;20013;-88
2023/10/31 05:00:31;;;;;;;8.02;1.50;;;11.00;99.90;;;;;;5043886;28;20037;-85
2023/10/31 05:02:58;;;;;;;3.10;1.02;;;11.10;99.90;;;;;;5024227;28;20384;-85
2023/10/31 05:05:23;;;;;;;4.03;1.17;;;11.10;99.90;;;;;;5023979;28;20013;-85
2023/10/31 05:07:49;;;;;;;14.30;1.42;;;11.40;99.90;;;;;;5024558;28;20047;-86
2023/10/31 05:10:15;;;;;;;2.45;0.80;;;11.10;99.90;;;;;;5024215;28;20021;-84
2023/10/31 05:12:42;;;;;;;3.63;1.20;;;;;;;;;;5017231;28;20037;-88
2023/10/31 05:15:08;;;;;;;1.25;0.90;;;11.20;99.90;;;;;;5026415;28;20018;-86
2023/10/31 05:17:34;;;;;;;2.75;1.00;;;11.10;99.90;;;;;;5040809;28;20136;-86
2023/10/31 05:20:00;;;;;;;4.30;1.17;;;11.00;99.90;;;;;;5033887;28;20030;-88
2023/10/31 05:22:26;;;;;;;1.23;0.80;;;;;;;;;;5041780;28;20034;-84
2023/10/31 05:24:52;;;;;;;3.80;1.00;;;;;;;;;;5025111;28;20050;-86
2023/10/31 05:27:17;;;;;;;1.55;0.90;;;11.10;99.90;;;;;;5032188;28;20034;-90
2023/10/31 05:29:43;;;;;;;3.55;1.00;;;11.10;99.90;;;;;;5028779;28;20112;-88
2023/10/31 05:32:09;;;;;;;3.20;1.05;;;11.10;99.90;;;;;;5037363;28;20029;-88
2023/10/31 05:34:35;;;;;;;3.33;1.20;;;11.00;99.90;;;;;;5029859;28;20041;-87
2023/10/31 05:37:00;;;;;;;4.38;1.08;;;11.00;99.90;;;;;;5043375;28;20032;-85
2023/10/31 05:39:26;;;;;;;6.68;1.00;;;11.00;99.90;;;;;;5030360;28;20017;-88
2023/10/31 05:41:52;;;;;;;2.72;0.70;;;;;;;;;;5029191;28;20017;-86
2023/10/31 05:44:18;;;;;;;3.72;0.90;;;;;;;;;;5010422;28;20033;-88
2023/10/31 05:46:44;;;;;;;4.18;1.15;;;11.00;99.90;;;;;;5050205;28;20025;-87
2023/10/31 05:49:10;;;;;;;2.70;1.05;;;;;;;;;;5030036;28;20048;-85
2023/10/31 05:51:36;;;;;;;1.33;0.75;;;11.10;99.90;;;;;;5028632;28;20029;-89
2023/10/31 05:54:02;;;;;;;3.70;1.33;;;13.00;99.90;;;;;;5024962;28;20014;-86
2023/10/31 05:56:27;;;;;;;3.17;1.15;;;11.10;99.90;;;;;;5027441;28;20029;-85
2023/10/31 05:58:53;;;;;;;3.60;1.15;;;11.00;99.90;;;;;;5044605;28;20044;-86
2023/10/31 06:01:19;;;;;;;4.47;1.60;;;11.30;99.90;;;;;;5040267;28;20025;-88
2023/10/31 06:03:45;;;;;;;7.35;1.25;;;;;;;;;;5027922;28;20056;-87
2023/10/31 06:06:12;;;;;;;3.45;1.08;;;11.00;99.90;;;;;;5044611;28;20034;-86
2023/10/31 06:08:38;;;;;;;4.90;1.05;;;11.00;99.90;;;;;;5032085;28;20019;-88
2023/10/31 06:11:04;;;;;;;3.63;1.20;;;10.60;99.90;;;;;;5029980;28;20036;-86
2023/10/31 06:13:31;;;;;;;5.28;1.30;;;11.00;99.90;;;;;;5041776;28;20030;-86
2023/10/31 06:15:57;;;;;;;4.97;1.20;;;11.00;99.90;;;;;;5028770;28;20033;-89
2023/10/31 06:18:23;;;;;;;3.00;1.00;;;12.10;99.90;;;;;;5045440;28;20024;-88
2023/10/31 06:20:49;;;;;;;5.00;1.10;;;;;;;;;;5030164;28;20037;-88
2023/10/31 06:23:15;;;;;;;6.18;1.05;;;11.00;99.90;;;;;;5029394;28;20029;-87
2023/10/31 06:25:41;;;;;;;3.67;1.05;;;10.90;99.90;;;;;;5026527;28;20105;-87
2023/10/31 06:28:06;;;;;;;3.90;1.55;;;10.90;99.90;;;;;;5035641;28;20045;-86
2023/10/31 06:30:32;;;;;;;5.43;1.30;;;10.90;99.90;;;;;;5029104;28;20101;-87
2023/10/31 06:32:59;;;;;;;4.88;1.40;;;13.30;99.90;;;;;;5028466;28;20017;-86
2023/10/31 06:35:24;;;;;;;4.75;1.40;;;11.30;99.90;;;;;;5031436;28;20029;-88
2023/10/31 06:37:51;;;;;;;3.28;1.48;;;10.90;99.90;;;;;;5029808;28;20022;-86
2023/10/31 06:40:17;;;;;;;6.85;1.60;;;10.90;99.90;;;;;;5050702;28;20034;-87
2023/10/31 06:42:43;;;;;;;5.57;1.30;;;10.90;99.90;;;;;;5048719;28;20025;-87
2023/10/31 06:45:09;;;;;;;4.50;1.35;;;11.00;99.90;;;;;;5028439;28;20093;-88
2023/10/31 06:47:34;;;;;;;4.55;1.30;;;11.00;99.90;;;;;;5027884;28;20022;-86
2023/10/31 06:50:00;;;;;;;6.65;1.30;;;11.00;99.90;;;;;;5025961;28;20030;-88
2023/10/31 06:52:26;;;;;;;4.15;1.10;;;11.70;99.90;;;;;;5041391;28;20059;-86
2023/10/31 06:54:52;;;;;;;4.05;1.02;;;;;;;;;;5037953;28;20034;-89
2023/10/31 06:57:17;;;;;;;3.58;1.08;;;11.00;99.90;;;;;;5031104;28;20013;-88
2023/10/31 06:59:46;;;;;;;4.13;1.10;;;11.00;99.90;;;;;;5022970;28;20036;-86
2023/10/31 07:02:13;;;;;;;8.80;1.17;;;11.00;99.90;;;;;;5052915;28;20005;-88
2023/10/31 08:44:04;;;;;;;11.43;2.13;;;11.80;99.90;;;;;;4990758;28;20046;-87
2023/10/31 08:46:29;;;;;;;5.65;1.60;;;11.80;99.90;;;;;;4992588;28;20199;-87
2023/10/31 08:48:55;;;;;;;4.85;1.55;;;11.80;99.90;;;;;;4990408;28;20014;-87
2023/10/31 08:51:23;;;;;;;6.57;1.30;;;11.80;99.90;;;;;;4993965;28;20025;-87
2023/10/31 08:53:48;;;;;;;6.40;1.30;;;11.80;99.90;;;;;;4989686;28;20019;-85
2023/10/31 08:56:14;;;;;;;5.95;1.60;;;;;;;;;;4990046;28;20042;-88
2023/10/31 08:58:40;;;;;;;6.05;1.88;;;11.80;99.90;;;;;;4996517;28;20037;-85
2023/10/31 09:01:06;;;;;;;7.85;1.60;;;;;;;;;;4988046;28;20015;-87
2023/10/31 09:03:32;;;;;;;4.45;1.60;;;;;;;;;;4986624;28;20027;-88
2023/10/31 09:05:58;;;;;;;4.35;1.45;;;12.00;99.90;;;;;;4984586;28;20033;-89
2023/10/31 09:08:24;;;;;;;4.20;1.40;;;14.20;99.90;;;;;;4994182;28;20014;-89
2023/10/31 09:10:50;;;;;;;5.55;1.60;;;;;;;;;;4988939;28;20054;-87
2023/10/31 09:13:16;;;;;;;7.32;2.35;;;12.20;99.90;;;;;;4992578;28;20014;-89
2023/10/31 09:15:41;;;;;;;9.88;1.90;;;12.20;99.90;;;;;;4991687;28;20035;-87
2023/10/31 09:18:07;;;;;;;6.38;2.05;;;;;;;;;;4986448;28;20031;-90
2023/10/31 09:20:33;;;;;;;11.45;2.40;;;;;;;;;;4990300;28;20042;-90
2023/10/31 09:22:59;;;;;;;5.18;1.67;;;;;;;;;;4991839;28;20049;-91
2023/10/31 09:25:25;;;;;;;3.67;1.50;;;12.30;99.90;;;;;;4976641;28;20053;-90
2023/10/31 09:27:51;;;;;;;6.68;1.52;;;12.30;99.90;;;;;;4961433;28;20007;-89
2023/10/31 09:30:17;;;;;;;9.20;1.63;;;12.20;99.90;;;;;;4987805;28;20019;-90
2023/10/31 09:32:43;;;;;;;8.30;1.85;;;;;;;;;;4978846;28;20026;-91
2023/10/31 09:35:09;;;;;;;13.38;1.63;;;12.20;99.90;;;;;;4989436;28;20043;-89
2023/10/31 09:37:35;;;;;;;5.93;1.40;;;;;;;;;;4991139;28;20094;-88
2023/10/31 09:40:02;;;;;;;8.80;1.40;;;12.20;99.90;;;;;;4984670;28;20033;-90
2023/10/31 09:42:28;;;;;;;5.53;1.15;;;12.30;99.90;;;;;;4988799;28;20026;-89
2023/10/31 09:49:29;;;;;;;;;;;;;;;;;;;;;
2023/10/31 11:03:00;;;;;;;5.68;1.73;;;13.80;99.90;;;;;;5016788;28;20046;-87
2023/10/31 11:05:26;;;;;;;4.53;1.25;;;13.70;99.90;;;;;;5017755;28;20022;-85
2023/10/31 11:07:55;;;;;;;7.28;1.50;;;14.00;99.90;;;;;;5004127;28;20114;-86
2023/10/31 11:10:21;;;;;;;3.85;1.52;;;14.10;99.90;;;;;;5001998;28;20874;-89
2023/10/31 11:12:47;;;;;;;6.47;1.50;;;14.10;99.90;;;;;;5021501;28;20026;-86
2023/10/31 11:15:16;;;;;;;6.13;1.38;;;14.20;99.90;;;;;;5020908;28;20045;-87
2023/10/31 11:17:46;;;;;;;3.95;1.60;;;14.60;99.90;;;;;;5006568;28;20042;-89
2023/10/31 11:20:14;;;;;;;3.50;1.75;;;14.10;99.90;;;;;;5028696;28;20026;-90
2023/10/31 11:22:42;;;;;;;3.63;1.45;;;13.90;99.90;;;;;;4992779;28;20026;-87
2023/10/31 11:25:09;;;;;;;3.33;1.38;;;13.80;99.90;;;;;;5023993;28;20022;-88
2023/10/31 11:27:36;;;;;;;6.85;1.52;;;13.70;99.90;;;;;;5008406;28;20032;-85
2023/10/31 11:30:05;;;;;;;5.65;1.20;;;13.90;99.90;;;;;;5030365;28;20097;-88
2023/10/31 11:32:33;;;;;;;5.13;1.30;;;14.00;99.90;;;;;;5022582;28;20042;-87
2023/10/31 11:34:59;;;;;;;3.20;1.10;;;14.10;99.90;;;;;;5028107;28;20030;-87
2023/10/31 11:37:34;;;;;;;3.13;1.30;;;15.30;99.90;;;;;;5019595;28;20030;-88
2023/10/31 11:40:29;;;;;;;4.00;1.20;;;14.40;99.90;;;;;;5035299;28;20018;-86
2023/10/31 11:42:57;;;;;;;3.22;1.13;;;14.50;99.90;;;;;;5020204;28;20061;-87
2023/10/31 11:45:30;;;;;;;5.75;1.40;;;14.50;99.90;;;;;;5022133;28;20014;-87
2023/10/31 11:47:56;;;;;;;3.53;1.65;;;14.40;99.90;;;;;;5032469;28;20053;-88
2023/10/31 11:50:22;;;;;;;6.10;1.08;;;14.50;99.90;;;;;;5017996;28;20925;-88
2023/10/31 11:53:07;;;;;;;3.10;1.00;;;14.30;99.90;;;;;;5033750;28;20023;-87
2023/10/31 11:55:39;;;;;;;4.05;1.83;;;14.20;99.90;;;;;;5023645;28;20026;-85
2023/10/31 11:58:20;;;;;;;4.53;1.25;;;14.20;99.90;;;;;;5031470;28;20026;-87
2023/10/31 12:00:47;;;;;;;4.70;1.10;;;14.20;99.90;;;;;;5022873;28;20017;-86
2023/10/31 12:03:16;;;;;;;3.40;1.02;;;14.10;99.90;;;;;;5000685;28;20098;-89
2023/10/31 12:05:53;;;;;;;2.35;0.73;;;14.00;99.90;;;;;;5022109;28;20037;-90
2023/10/31 12:08:33;;;;;;;5.65;1.10;;;13.90;99.90;;;;;;5026505;28;20025;-89
2023/10/31 12:11:13;;;;;;;2.22;1.00;;;13.90;99.90;;;;;;5020656;28;20384;-87
2023/10/31 12:13:54;;;;;;;3.25;1.10;;;14.00;99.90;;;;;;5014305;28;20022;-89
2023/10/31 12:16:30;;;;;;;1.75;0.90;;;14.00;99.90;;;;;;5015966;28;20026;-86
2023/10/31 12:19:04;;;;;;;3.17;0.90;;;14.20;99.90;;;;;;4999791;28;20149;-86
2023/10/31 12:21:46;;;;;;;1.83;0.90;;;14.40;99.90;;;;;;4998426;28;20113;-88
2023/10/31 12:24:14;;;;;;;1.90;0.90;;;14.70;99.90;;;;;;5006964;28;20038;-85
2023/10/31 12:26:41;;;;;;;6.20;1.10;;;14.50;99.90;;;;;;5020169;28;20053;-88
2023/10/31 12:29:15;;;;;;;4.50;1.10;;;14.50;99.90;;;;;;5007216;28;20022;-86
2023/10/31 12:31:49;;;;;;;4.70;1.55;;;14.50;99.90;;;;;;5002848;28;20018;-88
2023/10/31 12:34:16;;;;;;;2.30;1.20;;;14.30;99.90;;;;;;5022255;28;20030;-88
2023/10/31 12:36:42;;;;;;;5.22;1.35;;;14.30;99.90;;;;;;5003797;28;20038;-88
2023/10/31 12:39:12;;;;;;;4.90;1.27;;;14.30;99.90;;;;;;5021670;28;20427;-88
2023/10/31 12:41:41;;;;;;;3.13;1.20;;;14.20;99.90;;;;;;5021989;28;20038;-88
2023/10/31 12:44:10;;;;;;;5.82;1.63;;;14.20;99.90;;;;;;5005345;28;20141;-86
2023/10/31 12:46:40;;;;;;;3.75;1.10;;;14.20;99.90;;;;;;5006463;28;20046;-84
2023/10/31 12:49:17;;;;;;;3.90;1.00;;;14.10;99.90;;;;;;5010148;28;20047;-87
2023/10/31 12:52:03;;;;;;;2.75;1.00;;;14.10;99.90;;;;;;4999769;28;20060;-88
2023/10/31 12:54:36;;;;;;;6.85;1.98;;;14.00;99.90;;;;;;5017760;28;20030;-85
2023/10/31 12:57:07;;;;;;;3.78;1.20;;;14.10;99.90;;;;;;5023988;28;20048;-87
2023/10/31 12:59:33;;;;;;;;;;;14.20;99.90;;;;;;5018437;28;20040;-84
2023/10/31 13:01:59;;;;;;;2.45;0.98;;;14.10;99.90;;;;;;5027397;28;19917;-87
2023/10/31 13:04:27;;;;;;;3.28;0.80;;;14.50;99.90;;;;;;5013548;28;20036;-87
2023/10/31 13:07:03;;;;;;;6.18;1.02;;;15.10;99.90;;;;;;5024301;28;21263;-87
2023/10/31 13:09:30;;;;;;;3.67;1.40;;;14.20;99.90;;;;;;5002266;28;20037;-88
2023/10/31 13:11:59;;;;;;;4.93;1.00;;;14.20;99.90;;;;;;5022092;28;20034;-85
2023/10/31 13:14:24;;;;;;;3.60;1.00;;;14.20;99.90;;;;;;5012346;28;20085;-88
2023/10/31 13:16:50;;;;;;;3.00;1.20;;;14.10;99.90;;;;;;5008187;28;20037;-89
2023/10/31 13:19:16;;;;;;;5.55;1.05;;;15.10;99.90;;;;;;5005306;28;20557;-88
2023/10/31 13:21:41;;;;;;;2.35;0.98;;;14.30;99.90;;;;;;5022840;28;21178;-87
2023/10/31 13:24:08;;;;;;;2.88;1.10;;;14.30;99.90;;;;;;5006969;28;20117;-88
2023/10/31 13:26:34;;;;;;;3.42;0.77;;;14.20;99.90;;;;;;5011324;28;20036;-87
2023/10/31 13:28:59;;;;;;;3.80;1.05;;;14.20;99.90;;;;;;5017604;28;20022;-86
2023/10/31 13:31:25;;;;;;;2.33;1.35;;;14.20;99.90;;;;;;5010584;28;20049;-88
2023/10/31 13:33:50;;;;;;;3.30;0.70;;;14.00;99.90;;;;;;5015697;28;20113;-86
2023/10/31 13:36:16;;;;;;;3.92;1.13;;;14.00;99.90;;;;;;5010028;28;20043;-86
2023/10/31 13:38:42;;;;;;;1.83;0.70;;;14.00;99.90;;;;;;5031881;28;20034;-85
2023/10/31 13:41:09;;;;;;;3.63;1.15;;;;;;;;;;5026400;28;20038;-85
2023/10/31 13:43:35;;;;;;;4.13;1.10;;;14.00;99.90;;;;;;5002841;28;20042;-88
2023/10/31 13:46:01;;;;;;;4.18;1.30;;;13.90;99.90;;;;;;5015582;28;20018;-88
2023/10/31 13:48:26;;;;;;;3.40;1.10;;;13.90;99.90;;;;;;5004584;28;20089;-87
2023/10/31 13:50:52;;;;;;;3.67;0.98;;;;;;;;;;5003544;28;20188;-85
2023/10/31 13:53:18;;;;;;;1.83;1.00;;;13.90;99.90;;;;;;5018323;28;20036;-87
2023/10/31 13:55:44;;;;;;;3.38;0.85;;;13.90;99.90;;;;;;5001365;28;20102;-88
2023/10/31 13:58:10;;;;;;;2.88;1.00;;;;;;;;;;5018447;28;20038;-88
2023/10/31 14:00:36;;;;;;;6.07;1.27;;;14.00;99.90;;;;;;5008564;28;20021;-85
2023/10/31 14:03:02;;;;;;;4.15;1.20;;;14.00;99.90;;;;;;5027355;28;20042;-85
2023/10/31 14:05:27;;;;;;;2.85;0.80;;;14.00;99.90;;;;;;5029788;28;20014;-87
2023/10/31 14:07:53;;;;;;;2.38;0.95;;;;;;;;;;5021931;28;20065;-86
2023/10/31 14:10:20;;;;;;;2.75;1.20;;;;;;;;;;5029410;28;20041;-87
2023/10/31 14:12:46;;;;;;;3.05;1.30;;;13.90;99.90;;;;;;5006645;28;20082;-89
2023/10/31 14:15:12;;;;;;;5.07;1.20;;;14.00;99.90;;;;;;5007178;28;20041;-87
2023/10/31 14:17:38;;;;;;;3.35;1.20;;;13.90;99.90;;;;;;5001740;28;20501;-85
2023/10/31 14:20:04;;;;;;;5.57;1.35;;;13.80;99.90;;;;;;5014366;28;20026;-84
2023/10/31 14:22:30;;;;;;;7.05;1.50;;;13.80;99.90;;;;;;5016205;28;20025;-85
2023/10/31 14:24:56;;;;;;;2.25;1.08;;;13.80;99.90;;;;;;5021400;28;20048;-88
2023/10/31 14:27:22;;;;;;;2.72;1.15;;;;;;;;;;5007660;28;20207;-87
2023/10/31 14:29:47;;;;;;;3.08;1.10;;;13.80;99.90;;;;;;5015777;28;20520;-88
2023/10/31 14:32:13;;;;;;;3.42;1.15;;;13.80;99.90;;;;;;5016813;28;20045;-88
2023/10/31 14:34:39;;;;;;;2.72;1.10;;;13.80;99.90;;;;;;5015043;28;20061;-87
2023/10/31 14:37:05;;;;;;;3.92;1.00;;;13.90;99.90;;;;;;5010218;28;20089;-86
2023/10/31 14:39:31;;;;;;;5.55;1.73;;;14.00;99.90;;;;;;5026580;28;20114;-87
2023/10/31 14:41:57;;;;;;;3.95;1.20;;;14.00;99.90;;;;;;5020046;28;20026;-88
2023/10/31 14:44:23;;;;;;;3.05;1.10;;;14.10;99.90;;;;;;5009716;28;20018;-86
2023/10/31 14:46:49;;;;;;;3.45;1.30;;;15.40;99.90;;;;;;5009609;28;20094;-84
2023/10/31 14:49:15;;;;;;;3.10;1.58;;;;;;;;;;5024864;28;20028;-88
2023/10/31 14:51:41;;;;;;;5.88;1.48;;;14.00;99.90;;;;;;5016734;28;20034;-87
2023/10/31 14:54:07;;;;;;;7.22;1.90;;;14.00;99.90;;;;;;5010273;28;20025;-87
2023/10/31 14:56:35;;;;;;;7.32;1.73;;;13.90;99.90;;;;;;5018288;28;20029;-88
2023/10/31 14:59:02;;;;;;;5.05;1.60;;;13.90;99.90;;;;;;5019519;28;20093;-87
2023/10/31 15:16:58;;;;;;;7.97;1.60;;;13.50;99.90;;;;;;5022665;28;20045;-86
2023/10/31 15:19:23;;;;;;;6.03;1.88;;;13.50;99.90;;;;;;5027870;28;20077;-86
2023/10/31 15:21:49;;;;;;;7.68;1.58;;;13.60;99.90;;;;;;5028665;28;20014;-85
2023/10/31 15:24:15;;;;;;;4.30;1.23;;;;;;;;;;5012489;28;20048;-89
2023/10/31 15:26:41;;;;;;;5.50;1.30;;;;;;;;;;5016707;28;20056;-86
2023/10/31 15:29:07;;;;;;;5.43;1.70;;;13.50;99.90;;;;;;5005761;28;20038;-86
2023/10/31 15:31:33;;;;;;;5.78;1.60;;;14.40;99.90;;;;;;5003967;28;20105;-86
2023/10/31 15:33:59;;;;;;;5.55;1.08;;;13.50;99.90;;;;;;5009581;28;20030;-85
2023/10/31 15:36:29;;;;;;;7.57;1.90;;;13.50;99.90;;;;;;5016093;28;20055;-85
2023/10/31 15:38:55;;;;;;;3.50;1.42;;;13.60;99.90;;;;;;5014948;28;20073;-88
2023/10/31 15:41:21;;;;;;;5.35;1.05;;;13.50;99.90;;;;;;5016192;28;20018;-85
2023/10/31 15:43:47;;;;;;;6.40;1.30;;;13.40;99.90;;;;;;4996105;28;20054;-87
2023/10/31 15:46:13;;;;;;;3.20;1.15;;;13.30;99.90;;;;;;5004172;28;20021;-85
2023/10/31 15:48:38;;;;;;;4.78;1.60;;;13.30;99.90;;;;;;5008053;28;20022;-84
2023/10/31 15:51:04;;;;;;;4.38;1.08;;;13.30;99.90;;;;;;5008450;28;20035;-87
2023/10/31 15:53:31;;;;;;;6.03;1.40;;;13.30;99.90;;;;;;5010872;28;20053;-88
2023/10/31 15:55:57;;;;;;;6.70;1.80;;;13.30;99.90;;;;;;5026413;28;20026;-85
2023/10/31 15:58:23;;;;;;;6.53;1.80;;;;;;;;;;5028896;28;20036;-86
2023/10/31 16:00:49;;;;;;;7.07;1.83;;;;;;;;;;5029684;28;20010;-86
2023/10/31 16:03:15;;;;;;;5.40;1.20;;;;;;;;;;5028691;28;20038;-87
2023/10/31 16:05:41;;;;;;;5.05;1.35;;;;;;;;;;5028023;28;20038;-88
2023/10/31 16:08:07;;;;;;;8.18;1.40;;;;;;;;;;5025259;28;20025;-85
2023/10/31 16:10:34;;;;;;;5.18;1.70;;;13.20;99.90;;;;;;5013726;28;20097;-85
2023/10/31 16:13:00;;;;;;;4.30;1.10;;;;;;;;;;5005187;28;20129;-86
2023/10/31 16:15:26;;;;;;;4.75;1.30;;;;;;;;;;5005670;28;20033;-86
2023/10/31 16:17:52;;;;;;;4.43;1.20;;;;;;;;;;5007404;28;20026;-86
2023/10/31 16:20:18;;;;;;;4.72;1.52;;;;;;;;;;5005750;28;20027;-84
2023/10/31 16:22:44;;;;;;;3.78;1.70;;;;;;;;;;5003856;28;20030;-83
2023/10/31 16:25:10;;;;;;;9.50;1.60;;;;;;;;;;5026027;28;20029;-84
2023/10/31 16:27:36;;;;;;;8.55;1.77;;;;;;;;;;5002106;28;20038;-87
2023/10/31 16:30:02;;;;;;;4.32;1.67;;;12.90;99.90;;;;;;5020169;28;20072;-83
2023/10/31 16:32:28;;;;;;;7.10;1.90;;;12.90;99.90;;;;;;5005051;28;20101;-85
2023/10/31 16:34:54;;;;;;;7.85;2.28;;;12.90;99.90;;;;;;5009676;28;20030;-88
2023/10/31 16:37:19;;;;;;;4.63;1.30;;;12.90;99.90;;;;;;5025860;28;20033;-87
2023/10/31 16:39:48;;;;;;;3.90;1.88;;;12.90;99.90;;;;;;5007317;28;20062;-88
2023/10/31 16:42:14;;;;;;;4.65;1.83;;;12.90;99.90;;;;;;5012218;28;20030;-85
2023/10/31 16:44:40;;;;;;;5.95;2.00;;;;;;;;;;5005143;28;20057;-85